Time;durP1;ratioP1;P1;durP2;ratioP2;P2;SDS_P1;SDS_P2;PMS_P1;PMS_P2;Temp;Humidity;BMP_temperature;BMP_pressure;BME280_temperature;BME280_humidity;BME280_pressure;Samples;Min_cycle;Max_cycle;Signal;HPM_P1;HPM_P2
2021/03/14 00:01:37;;;;;;;3.93;0.60;;;5.60;91.90;;;;;;4864031;29;20454;-80
2021/03/14 00:04:05;;;;;;;2.30;0.70;;;5.50;91.90;;;;;;4881557;29;20040;-79
2021/03/14 00:06:31;;;;;;;2.13;0.60;;;5.50;91.90;;;;;;4885397;29;20049;-77
2021/03/14 00:08:58;;;;;;;6.90;0.87;;;5.50;91.90;;;;;;4896339;29;20788;-77
2021/03/14 00:11:24;;;;;;;2.87;0.87;;;5.50;91.90;;;;;;4881239;29;20068;-77
2021/03/14 00:13:51;;;;;;;4.50;1.37;;;5.50;91.90;;;;;;4896730;29;20041;-80
2021/03/14 00:16:18;;;;;;;4.70;0.97;;;5.50;91.80;;;;;;4865981;29;20116;-78
2021/03/14 00:18:46;;;;;;;2.70;0.53;;;5.50;91.80;;;;;;4896585;29;20045;-77
2021/03/14 00:21:15;;;;;;;3.93;1.13;;;5.50;92.10;;;;;;4896970;29;20063;-78
2021/03/14 00:23:41;;;;;;;5.50;0.90;;;5.40;92.10;;;;;;4895806;29;20056;-78
2021/03/14 00:26:08;;;;;;;5.97;0.73;;;5.40;91.80;;;;;;4881545;29;20044;-77
2021/03/14 00:28:34;;;;;;;3.20;0.60;;;5.50;92.10;;;;;;4909453;29;20045;-77
2021/03/14 00:31:01;;;;;;;4.33;0.70;;;5.50;91.80;;;;;;4897215;29;20452;-77
2021/03/14 00:33:28;;;;;;;3.43;0.63;;;5.50;91.80;;;;;;4881322;29;20120;-78
2021/03/14 00:35:55;;;;;;;2.87;0.80;;;5.50;91.80;;;;;;4896349;29;20140;-79
2021/03/14 00:38:21;;;;;;;4.03;0.53;;;5.50;91.80;;;;;;4894327;29;20117;-77
2021/03/14 00:40:48;;;;;;;5.90;0.80;;;5.50;91.80;;;;;;4896201;29;20485;-73
2021/03/14 00:43:14;;;;;;;5.43;0.60;;;5.60;91.70;;;;;;4887668;29;20044;-72
2021/03/14 00:45:41;;;;;;;4.53;0.50;;;5.60;91.70;;;;;;4895217;29;20572;-73
2021/03/14 00:48:28;;;;;;;5.23;0.87;;;5.50;92.00;;;;;;4880772;29;20497;-73
2021/03/14 00:50:56;;;;;;;2.73;0.40;;;5.50;91.80;;;;;;4890463;29;20068;-73
2021/03/14 00:53:32;;;;;;;3.93;0.50;;;5.50;92.00;;;;;;4891525;29;20079;-73
2021/03/14 00:56:01;;;;;;;5.23;0.83;;;5.60;91.80;;;;;;4895197;29;20120;-73
2021/03/14 00:58:28;;;;;;;7.30;0.80;;;5.60;91.80;;;;;;4878011;29;20458;-73
2021/03/14 01:00:55;;;;;;;3.70;0.60;;;5.60;91.70;;;;;;4887676;29;20053;-73
2021/03/14 01:03:22;;;;;;;1.63;0.43;;;5.70;91.60;;;;;;4876016;29;20405;-73
2021/03/14 01:05:50;;;;;;;3.13;0.70;;;5.70;91.60;;;;;;4880096;29;20063;-73
2021/03/14 01:08:19;;;;;;;2.93;0.60;;;5.70;91.90;;;;;;4864785;29;20044;-73
2021/03/14 01:10:46;;;;;;;5.53;0.67;;;5.80;91.60;;;;;;4895055;29;20052;-73
2021/03/14 01:13:24;;;;;;;9.43;0.90;;;5.80;91.50;;;;;;4910318;29;20055;-73
2021/03/14 01:15:51;;;;;;;4.40;0.70;;;5.80;91.40;;;;;;4910767;29;20051;-73
2021/03/14 01:18:18;;;;;;;4.97;1.40;;;5.90;91.40;;;;;;4880843;29;20048;-77
2021/03/14 01:20:44;;;;;;;6.40;0.67;;;5.90;91.40;;;;;;4862470;29;20052;-77
2021/03/14 01:23:11;;;;;;;5.73;0.70;;;5.90;91.40;;;;;;4889095;29;20498;-77
2021/03/14 01:25:38;;;;;;;7.40;0.83;;;5.90;91.40;;;;;;4879478;29;20053;-73
2021/03/14 01:28:05;;;;;;;3.20;0.60;;;5.90;91.40;;;;;;4879838;29;20120;-73
2021/03/14 01:30:32;;;;;;;7.80;1.07;;;5.90;91.30;;;;;;4891429;29;20048;-76
2021/03/14 01:32:58;;;;;;;2.03;0.60;;;6.00;91.40;;;;;;4911597;29;20036;-73
2021/03/14 01:35:25;;;;;;;5.03;0.70;;;6.00;91.30;;;;;;4857608;29;20502;-73
2021/03/14 01:37:51;;;;;;;2.50;0.60;;;6.00;91.30;;;;;;4890059;29;20056;-73
2021/03/14 01:40:18;;;;;;;3.20;0.50;;;6.00;91.30;;;;;;4898577;29;20059;-72
2021/03/14 01:42:46;;;;;;;4.27;0.50;;;6.00;91.30;;;;;;4896432;29;20048;-73
2021/03/14 01:45:14;;;;;;;3.87;0.50;;;6.00;91.40;;;;;;4892019;29;20040;-75
2021/03/14 01:47:43;;;;;;;3.37;0.47;;;6.00;91.40;;;;;;4900022;29;20045;-76
2021/03/14 01:50:16;;;;;;;3.03;0.60;;;6.00;91.40;;;;;;4900892;29;20045;-76
2021/03/14 01:52:45;;;;;;;3.78;0.50;;;6.00;91.40;;;;;;4901023;29;20045;-76
2021/03/14 01:55:13;;;;;;;1.80;0.50;;;5.90;91.40;;;;;;4899454;29;20076;-76
2021/03/14 01:57:40;;;;;;;2.73;0.50;;;5.90;91.40;;;;;;4900906;29;20088;-76
2021/03/14 02:00:09;;;;;;;2.63;0.67;;;6.00;91.40;;;;;;4899271;29;20096;-77
2021/03/14 02:02:40;;;;;;;3.10;0.80;;;6.00;91.40;;;;;;4881125;29;20139;-73
2021/03/14 02:05:09;;;;;;;3.83;0.50;;;6.00;91.40;;;;;;4899072;29;20100;-72
2021/03/14 02:07:38;;;;;;;4.70;1.07;;;6.00;91.40;;;;;;4898801;29;20100;-72
2021/03/14 02:10:06;;;;;;;2.67;0.70;;;6.00;91.40;;;;;;4899331;29;20048;-73
2021/03/14 02:13:02;;;;;;;4.43;0.60;;;6.00;91.40;;;;;;4904553;29;20063;-73
2021/03/14 02:15:31;;;;;;;5.40;0.90;;;6.00;91.40;;;;;;4898047;29;20463;-73
2021/03/14 02:18:01;;;;;;;4.80;0.50;;;6.00;91.40;;;;;;4897126;29;20064;-72
2021/03/14 02:20:30;;;;;;;3.47;0.50;;;5.90;91.40;;;;;;4897936;29;20373;-72
2021/03/14 02:23:25;;;;;;;4.00;0.70;;;5.90;91.40;;;;;;4886812;29;20128;-72
2021/03/14 02:26:17;;;;;;;2.63;0.60;;;6.00;91.40;;;;;;4898516;29;20485;-72
2021/03/14 02:28:45;;;;;;;5.70;0.60;;;6.00;91.40;;;;;;4892146;29;20053;-72
2021/03/14 02:31:12;;;;;;;1.50;0.50;;;6.00;91.50;;;;;;4881812;29;20044;-73
2021/03/14 02:33:42;;;;;;;5.20;0.53;;;6.00;91.40;;;;;;4897307;29;20077;-72
2021/03/14 02:36:11;;;;;;;5.20;0.50;;;6.00;91.40;;;;;;4912983;29;20059;-72
2021/03/14 02:38:41;;;;;;;2.10;0.50;;;6.00;91.50;;;;;;4878803;29;20049;-73
2021/03/14 02:41:08;;;;;;;3.30;0.50;;;6.00;91.50;;;;;;4897488;29;20056;-72
2021/03/14 02:43:36;;;;;;;2.83;0.63;;;5.90;91.50;;;;;;4895567;29;20445;-72
2021/03/14 02:46:05;;;;;;;1.80;0.50;;;5.90;91.50;;;;;;4911745;29;20048;-72
2021/03/14 02:48:32;;;;;;;5.40;0.57;;;5.90;91.50;;;;;;4894983;29;20473;-72
2021/03/14 02:51:01;;;;;;;3.77;0.60;;;5.90;91.60;;;;;;4886888;29;20068;-72
2021/03/14 02:53:28;;;;;;;1.83;0.50;;;5.90;91.50;;;;;;4895972;29;20100;-73
2021/03/14 02:55:55;;;;;;;4.70;0.70;;;5.90;91.60;;;;;;4897060;29;20104;-72
2021/03/14 02:58:23;;;;;;;2.73;0.60;;;5.90;91.60;;;;;;4881784;29;20473;-72
2021/03/14 03:00:51;;;;;;;3.57;0.50;;;5.90;91.60;;;;;;4897344;29;20048;-72
2021/03/14 03:03:25;;;;;;;5.87;0.80;;;5.90;91.50;;;;;;4888086;29;20045;-72
2021/03/14 03:06:00;;;;;;;3.73;0.70;;;5.90;91.50;;;;;;4896971;29;20128;-72
2021/03/14 03:08:30;;;;;;;4.10;0.60;;;5.90;91.70;;;;;;4897925;29;20052;-75
2021/03/14 03:11:00;;;;;;;4.30;0.83;;;5.90;91.50;;;;;;4892307;29;20113;-75
2021/03/14 03:13:28;;;;;;;3.53;0.60;;;5.90;91.50;;;;;;4892576;29;20045;-75
2021/03/14 03:15:58;;;;;;;4.10;0.60;;;5.80;91.50;;;;;;4897163;29;20107;-75
2021/03/14 03:18:25;;;;;;;4.13;0.50;;;5.80;91.60;;;;;;4897871;29;20080;-75
2021/03/14 03:20:54;;;;;;;5.40;0.70;;;5.80;91.60;;;;;;4882779;29;20075;-75
2021/03/14 03:23:21;;;;;;;4.20;0.60;;;5.80;91.60;;;;;;4899203;29;20513;-75
2021/03/14 03:25:48;;;;;;;5.80;0.73;;;5.70;91.80;;;;;;4898837;29;20452;-75
2021/03/14 03:28:15;;;;;;;6.37;0.80;;;5.70;91.60;;;;;;4897904;29;20131;-75
2021/03/14 03:30:45;;;;;;;4.23;0.37;;;5.70;91.60;;;;;;4881952;29;20044;-75
2021/03/14 03:33:11;;;;;;;3.23;0.60;;;5.70;91.60;;;;;;4897548;29;20048;-75
2021/03/14 03:35:38;;;;;;;6.13;0.50;;;5.60;91.60;;;;;;4880949;29;20500;-76
2021/03/14 03:38:05;;;;;;;4.13;0.50;;;5.60;91.60;;;;;;4896946;29;20112;-75
2021/03/14 03:40:33;;;;;;;5.03;0.73;;;5.60;91.70;;;;;;4897241;29;20045;-74
2021/03/14 03:43:10;;;;;;;4.20;0.50;;;5.60;91.70;;;;;;4913042;29;20041;-74
2021/03/14 03:45:40;;;;;;;5.03;0.73;;;5.60;91.60;;;;;;4898590;29;20037;-75
2021/03/14 03:48:09;;;;;;;4.17;0.60;;;5.60;91.70;;;;;;4912989;29;20045;-75
2021/03/14 03:50:49;;;;;;;8.00;0.70;;;5.60;91.70;;;;;;4882681;29;20413;-75
2021/03/14 03:53:17;;;;;;;2.97;0.60;;;5.60;91.70;;;;;;4912635;29;20057;-74
2021/03/14 03:55:44;;;;;;;4.07;0.60;;;5.50;91.70;;;;;;4881825;29;20059;-75
2021/03/14 03:58:11;;;;;;;2.80;0.40;;;5.60;91.70;;;;;;4881231;29;20067;-75
2021/03/14 04:00:39;;;;;;;2.30;0.40;;;5.50;91.70;;;;;;4881797;29;20486;-74
2021/03/14 04:03:06;;;;;;;4.50;0.50;;;5.50;91.60;;;;;;4898152;29;20404;-75
2021/03/14 04:05:35;;;;;;;1.73;0.40;;;5.50;91.70;;;;;;4898106;29;20119;-74
2021/03/14 04:08:02;;;;;;;2.80;0.40;;;5.50;91.70;;;;;;4896827;29;20413;-76
2021/03/14 04:10:30;;;;;;;3.33;0.60;;;5.60;91.80;;;;;;4880072;29;20040;-75
2021/03/14 04:12:58;;;;;;;3.93;0.50;;;5.60;91.80;;;;;;4889908;29;20043;-74
2021/03/14 04:15:30;;;;;;;2.87;0.50;;;5.60;91.70;;;;;;4896819;29;20040;-74
2021/03/14 04:17:57;;;;;;;3.67;0.40;;;5.60;91.70;;;;;;4897152;29;20827;-74
2021/03/14 04:20:33;;;;;;;3.03;0.57;;;5.60;91.70;;;;;;4897843;29;20044;-74
2021/03/14 04:23:12;;;;;;;2.63;0.40;;;5.50;91.70;;;;;;4898290;29;20044;-74
2021/03/14 04:25:39;;;;;;;3.70;0.40;;;5.50;91.80;;;;;;4897875;29;20040;-74
2021/03/14 04:28:07;;;;;;;4.67;0.60;;;5.50;91.80;;;;;;4878007;29;20041;-75
2021/03/14 04:30:34;;;;;;;4.07;0.57;;;5.50;91.80;;;;;;4894741;29;20052;-75
2021/03/14 04:33:02;;;;;;;4.03;1.20;;;5.50;92.10;;;;;;4897819;29;20036;-75
2021/03/14 04:35:30;;;;;;;2.60;0.50;;;5.50;91.80;;;;;;4897696;29;20049;-74
2021/03/14 04:37:57;;;;;;;7.90;0.73;;;5.50;91.80;;;;;;4897811;29;20477;-74
2021/03/14 04:40:25;;;;;;;6.50;0.63;;;5.50;91.80;;;;;;4896424;29;20568;-74
2021/03/14 04:42:53;;;;;;;4.07;0.60;;;5.50;91.80;;;;;;4896067;29;20048;-74
2021/03/14 04:45:21;;;;;;;5.90;0.90;;;5.60;91.80;;;;;;4889457;29;20044;-74
2021/03/14 04:47:48;;;;;;;7.27;0.70;;;5.60;91.80;;;;;;4892304;29;20052;-74
2021/03/14 04:50:19;;;;;;;4.90;0.47;;;5.60;91.80;;;;;;4896418;29;20481;-74
2021/03/14 04:52:51;;;;;;;2.43;0.67;;;5.60;91.80;;;;;;4897484;29;20044;-74
2021/03/14 04:55:19;;;;;;;7.33;0.60;;;5.70;91.80;;;;;;4884846;29;20053;-74
2021/03/14 04:57:48;;;;;;;3.83;0.50;;;5.70;91.80;;;;;;4897715;29;20041;-74
2021/03/14 05:00:17;;;;;;;7.73;0.60;;;5.70;91.80;;;;;;4897373;29;20040;-75
2021/03/14 05:02:47;;;;;;;2.93;0.87;;;5.70;91.70;;;;;;4889730;29;20083;-74
2021/03/14 05:05:14;;;;;;;3.77;0.70;;;5.70;91.70;;;;;;4897533;29;20572;-74
2021/03/14 05:07:43;;;;;;;5.00;0.63;;;5.70;91.70;;;;;;4897712;29;20040;-74
2021/03/14 05:10:15;;;;;;;7.30;1.30;;;5.70;91.70;;;;;;4899246;29;20044;-74
2021/03/14 05:12:44;;;;;;;3.90;0.53;;;5.70;91.70;;;;;;4900580;29;20041;-74
2021/03/14 05:15:15;;;;;;;6.67;0.83;;;5.70;91.70;;;;;;4892511;29;20041;-74
2021/03/14 05:17:43;;;;;;;7.77;0.97;;;5.70;91.70;;;;;;4899395;29;20048;-74
2021/03/14 05:20:13;;;;;;;7.90;0.83;;;5.70;91.70;;;;;;4899864;29;20040;-74
2021/03/14 05:22:42;;;;;;;6.03;0.87;;;5.70;91.70;;;;;;4900416;29;20072;-74
2021/03/14 05:25:10;;;;;;;6.83;1.10;;;5.70;91.70;;;;;;4900879;29;20063;-75
2021/03/14 05:27:37;;;;;;;3.83;0.60;;;5.70;91.70;;;;;;4895317;29;20564;-75
2021/03/14 05:30:06;;;;;;;5.23;0.70;;;5.70;91.70;;;;;;4892917;29;20501;-74
2021/03/14 05:32:33;;;;;;;4.23;0.77;;;5.70;91.70;;;;;;4900413;29;20575;-74
2021/03/14 05:34:59;;;;;;;5.80;0.73;;;5.70;91.70;;;;;;4873063;29;20053;-74
2021/03/14 05:37:26;;;;;;;4.27;0.80;;;5.70;91.60;;;;;;4899712;29;20044;-74
2021/03/14 05:39:52;;;;;;;4.27;1.30;;;5.70;91.60;;;;;;4898837;29;20041;-74
2021/03/14 05:42:20;;;;;;;5.13;0.87;;;5.70;91.60;;;;;;4899587;29;20049;-74
2021/03/14 05:44:46;;;;;;;4.33;1.80;;;5.60;91.60;;;;;;4899434;29;20127;-74
2021/03/14 05:47:13;;;;;;;5.00;1.33;;;5.60;91.70;;;;;;4899667;29;20123;-75
2021/03/14 05:49:40;;;;;;;3.60;1.23;;;5.60;91.80;;;;;;4883787;29;20124;-75
2021/03/14 05:52:19;;;;;;;5.33;1.83;;;5.50;91.80;;;;;;4899416;29;20036;-74
2021/03/14 05:54:46;;;;;;;5.87;1.53;;;5.50;92.20;;;;;;4898796;29;20041;-74
2021/03/14 05:57:16;;;;;;;3.50;1.60;;;5.50;92.00;;;;;;4885199;29;20119;-74
2021/03/14 05:59:52;;;;;;;4.07;1.70;;;5.50;92.00;;;;;;4909853;29;20096;-74
2021/03/14 06:02:19;;;;;;;8.97;1.83;;;5.40;92.00;;;;;;4868416;29;20048;-74
2021/03/14 06:04:52;;;;;;;5.97;1.73;;;5.40;92.10;;;;;;4898943;29;20497;-75
2021/03/14 06:07:20;;;;;;;5.70;1.77;;;5.40;92.40;;;;;;4884445;29;20047;-75
2021/03/14 06:09:46;;;;;;;5.43;1.60;;;5.40;92.10;;;;;;4896629;29;20561;-75
2021/03/14 06:12:13;;;;;;;4.53;1.70;;;5.40;92.20;;;;;;4882729;29;20048;-75
2021/03/14 06:14:40;;;;;;;5.77;1.60;;;5.40;92.20;;;;;;4888851;29;20060;-75
2021/03/14 06:17:07;;;;;;;5.83;1.77;;;5.50;92.30;;;;;;4898090;29;20096;-75
2021/03/14 06:19:34;;;;;;;6.17;1.73;;;5.50;92.30;;;;;;4898537;29;20049;-75
2021/03/14 06:22:23;;;;;;;4.17;1.87;;;5.50;92.30;;;;;;4899165;29;20925;-75
2021/03/14 06:24:52;;;;;;;5.80;2.10;;;5.50;92.40;;;;;;4898243;29;20497;-75
2021/03/14 06:27:37;;;;;;;4.27;1.90;;;5.40;92.40;;;;;;4898277;29;20044;-74
2021/03/14 06:30:15;;;;;;;4.50;1.80;;;5.50;92.40;;;;;;4898753;29;20084;-74
2021/03/14 06:33:13;;;;;;;2.77;1.40;;;5.50;92.40;;;;;;4896004;29;20405;-74
2021/03/14 06:35:48;;;;;;;3.77;1.87;;;5.50;92.40;;;;;;4898488;29;20037;-74
2021/03/14 06:38:18;;;;;;;4.47;1.77;;;5.50;92.50;;;;;;4882861;29;20052;-74
2021/03/14 06:40:45;;;;;;;4.13;1.70;;;5.50;92.50;;;;;;4899382;29;20048;-74
2021/03/14 06:43:13;;;;;;;4.43;1.20;;;5.50;92.50;;;;;;4882332;29;20052;-74
2021/03/14 06:45:41;;;;;;;5.00;1.63;;;5.50;92.50;;;;;;4896024;29;20048;-74
2021/03/14 06:48:08;;;;;;;3.03;1.63;;;5.50;92.50;;;;;;4898273;29;20100;-74
2021/03/14 06:50:40;;;;;;;5.50;1.33;;;5.60;92.50;;;;;;4899166;29;20049;-74
2021/03/14 06:53:08;;;;;;;4.20;1.30;;;5.70;92.50;;;;;;4897195;29;20485;-72
2021/03/14 06:55:35;;;;;;;5.33;1.80;;;5.70;92.50;;;;;;4897425;29;20041;-72
2021/03/14 06:58:28;;;;;;;3.27;1.50;;;5.70;92.50;;;;;;4891664;29;20037;-74
2021/03/14 07:01:11;;;;;;;5.10;1.60;;;5.80;92.50;;;;;;4899252;29;20104;-74
2021/03/14 07:03:45;;;;;;;5.43;1.93;;;5.80;92.40;;;;;;4897994;29;20516;-74
2021/03/14 07:06:19;;;;;;;4.27;1.43;;;5.80;92.40;;;;;;4882659;29;20136;-75
2021/03/14 07:08:49;;;;;;;3.63;1.50;;;5.80;92.40;;;;;;4910542;29;20523;-75
2021/03/14 07:11:42;;;;;;;5.57;2.13;;;5.80;92.40;;;;;;4891714;29;20041;-74
2021/03/14 07:14:14;;;;;;;5.33;2.33;;;5.80;92.40;;;;;;4888100;29;20048;-74
2021/03/14 07:16:47;;;;;;;4.07;1.80;;;5.80;92.40;;;;;;4888589;29;20090;-74
2021/03/14 07:19:16;;;;;;;;;;;5.80;92.40;;;;;;4899674;29;20044;-74
2021/03/14 07:21:43;;;;;;;4.63;2.30;;;5.80;92.50;;;;;;4899234;29;19928;-74
2021/03/14 07:24:14;;;;;;;4.73;2.20;;;5.80;92.50;;;;;;4890066;29;20048;-74
2021/03/14 07:26:46;;;;;;;5.90;2.87;;;5.90;92.40;;;;;;4899205;29;20493;-75
2021/03/14 07:29:13;;;;;;;8.43;3.00;;;5.90;92.40;;;;;;4897621;29;20052;-75
2021/03/14 07:31:39;;;;;;;5.53;2.60;;;5.90;92.40;;;;;;4897921;29;20489;-76
2021/03/14 07:34:07;;;;;;;4.60;2.00;;;5.90;92.40;;;;;;4895796;29;20048;-75
2021/03/14 07:36:33;;;;;;;4.10;2.00;;;5.90;92.50;;;;;;4882043;29;20134;-76
2021/03/14 07:39:06;;;;;;;4.10;2.27;;;6.00;92.50;;;;;;4897329;29;20739;-76
2021/03/14 07:41:33;;;;;;;5.20;2.40;;;6.00;92.50;;;;;;4897562;29;20051;-76
2021/03/14 07:44:02;;;;;;;4.37;2.27;;;6.10;92.50;;;;;;4897627;29;20044;-76
2021/03/14 07:46:30;;;;;;;5.10;2.20;;;6.10;92.50;;;;;;4893447;29;20095;-76
2021/03/14 07:48:59;;;;;;;6.60;3.30;;;6.10;92.50;;;;;;4897745;29;20044;-75
2021/03/14 07:51:27;;;;;;;5.30;3.30;;;6.20;92.50;;;;;;4897257;29;20048;-75
2021/03/14 07:53:58;;;;;;;5.60;3.03;;;6.20;92.40;;;;;;4897072;29;20078;-75
2021/03/14 07:56:31;;;;;;;7.93;3.77;;;6.20;92.40;;;;;;4896652;29;20089;-75
2021/03/14 07:58:58;;;;;;;5.97;2.70;;;6.30;92.40;;;;;;4896660;29;20032;-75
2021/03/14 08:01:26;;;;;;;8.10;3.93;;;6.30;92.40;;;;;;4893398;29;20045;-75
2021/03/14 08:03:54;;;;;;;8.67;3.50;;;6.40;92.40;;;;;;4881849;29;20053;-76
2021/03/14 08:06:42;;;;;;;7.27;4.10;;;6.50;92.30;;;;;;4898588;29;20075;-75
2021/03/14 08:09:09;;;;;;;6.57;3.90;;;6.50;92.30;;;;;;4907904;29;20051;-76
2021/03/14 08:11:36;;;;;;;7.97;4.33;;;6.50;92.30;;;;;;4912410;29;20059;-75
2021/03/14 08:14:03;;;;;;;5.77;3.70;;;6.60;92.30;;;;;;4897667;29;20044;-75
2021/03/14 08:16:30;;;;;;;6.97;3.47;;;6.70;92.30;;;;;;4898577;29;20124;-74
2021/03/14 08:19:13;;;;;;;6.97;3.73;;;6.70;92.30;;;;;;4897646;29;20064;-74
2021/03/14 08:21:40;;;;;;;7.73;3.90;;;6.90;92.30;;;;;;4896344;29;20044;-73
2021/03/14 08:24:16;;;;;;;8.73;4.50;;;6.90;92.30;;;;;;4905049;29;20389;-74
2021/03/14 08:26:44;;;;;;;8.17;3.63;;;7.00;92.30;;;;;;4896722;29;20097;-75
2021/03/14 08:29:16;;;;;;;7.07;4.03;;;7.10;92.20;;;;;;4882213;29;20056;-75
2021/03/14 08:31:49;;;;;;;5.67;3.63;;;7.10;92.20;;;;;;4896089;29;20044;-72
2021/03/14 08:34:42;;;;;;;5.90;3.63;;;7.20;92.20;;;;;;4875687;29;20051;-72
2021/03/14 08:37:26;;;;;;;7.13;3.37;;;7.20;92.20;;;;;;4890109;29;20045;-72
2021/03/14 08:40:05;;;;;;;5.30;2.67;;;7.30;92.10;;;;;;4894125;29;20045;-72
2021/03/14 08:42:55;;;;;;;7.43;3.67;;;7.30;92.10;;;;;;4895118;29;20048;-72
2021/03/14 08:45:34;;;;;;;8.75;4.05;;;7.40;92.10;;;;;;4893942;29;20084;-72
2021/03/14 08:48:20;;;;;;;7.40;3.65;;;7.50;92.10;;;;;;4882410;29;20048;-72
2021/03/14 08:50:51;;;;;;;7.22;3.33;;;7.60;92.10;;;;;;4879963;29;20052;-71
2021/03/14 08:53:21;;;;;;;6.53;3.70;;;7.70;92.10;;;;;;4894978;29;20059;-74
2021/03/14 08:56:08;;;;;;;6.43;3.03;;;7.80;92.00;;;;;;4896447;29;20515;-74
2021/03/14 08:58:43;;;;;;;9.40;3.55;;;7.80;91.90;;;;;;4881881;29;20101;-75
2021/03/14 09:01:15;;;;;;;6.20;3.70;;;7.80;91.80;;;;;;4896061;29;20137;-75
2021/03/14 09:04:17;;;;;;;10.33;3.67;;;7.90;91.80;;;;;;4886400;29;20045;-72
2021/03/14 09:07:11;;;;;;;7.30;3.83;;;7.90;91.90;;;;;;4888922;29;20475;-72
2021/03/14 09:09:43;;;;;;;6.93;3.50;;;8.00;91.80;;;;;;4865094;29;20059;-72
2021/03/14 09:12:29;;;;;;;5.80;3.22;;;8.00;91.70;;;;;;4896117;29;20508;-72
2021/03/14 09:15:08;;;;;;;7.13;2.95;;;8.00;91.70;;;;;;4894943;29;20053;-72
2021/03/14 09:17:43;;;;;;;8.97;3.33;;;8.00;91.80;;;;;;4893403;29;20168;-72
2021/03/14 09:20:24;;;;;;;6.75;3.20;;;8.00;91.70;;;;;;4895323;29;20037;-74
2021/03/14 09:22:51;;;;;;;4.40;2.47;;;8.10;91.70;;;;;;4896077;29;20049;-74
2021/03/14 09:25:24;;;;;;;4.50;2.25;;;8.10;91.80;;;;;;4895483;29;20055;-72
2021/03/14 09:27:50;;;;;;;4.82;2.55;;;8.10;91.70;;;;;;4879846;29;20049;-72
2021/03/14 09:30:25;;;;;;;5.30;2.27;;;8.10;91.80;;;;;;4877881;29;20160;-72
2021/03/14 09:33:03;;;;;;;6.60;2.63;;;8.20;91.80;;;;;;4885713;29;20048;-72
2021/03/14 09:35:42;;;;;;;5.07;2.03;;;8.30;91.70;;;;;;4884419;29;20075;-72
2021/03/14 09:38:23;;;;;;;4.10;1.50;;;8.40;91.70;;;;;;4880824;29;20143;-74
2021/03/14 09:41:01;;;;;;;5.53;2.67;;;8.50;92.00;;;;;;4895997;29;20442;-76
2021/03/14 09:43:29;;;;;;;5.40;2.55;;;8.60;91.40;;;;;;4880705;29;20052;-76
2021/03/14 09:46:07;;;;;;;6.50;3.03;;;8.70;91.30;;;;;;4896259;29;20492;-74
2021/03/14 09:48:46;;;;;;;7.25;2.95;;;8.80;91.20;;;;;;4894326;29;20140;-75
2021/03/14 09:51:12;;;;;;;5.65;2.95;;;8.80;90.90;;;;;;4894085;29;20040;-75
2021/03/14 09:53:41;;;;;;;7.18;3.17;;;8.90;90.90;;;;;;4895231;29;20140;-72
2021/03/14 09:56:19;;;;;;;7.32;2.95;;;8.90;90.90;;;;;;4868626;29;20051;-72
2021/03/14 09:59:26;;;;;;;6.38;3.10;;;9.00;90.70;;;;;;4823619;29;20142;-72
2021/03/14 10:02:05;;;;;;;7.65;3.03;;;9.10;90.60;;;;;;4811987;29;20659;-75
2021/03/14 10:04:48;;;;;;;5.47;3.25;;;9.20;90.40;;;;;;4880196;29;20056;-72
2021/03/14 10:07:23;;;;;;;5.65;2.97;;;9.20;90.50;;;;;;4914049;29;20049;-72
2021/03/14 10:09:51;;;;;;;6.75;2.50;;;9.20;90.40;;;;;;4882894;29;20052;-72
2021/03/14 10:12:26;;;;;;;9.98;2.75;;;9.30;90.30;;;;;;4880192;29;20131;-73
2021/03/14 10:14:55;;;;;;;6.80;2.63;;;9.30;90.20;;;;;;4867466;29;20112;-73
2021/03/14 10:17:22;;;;;;;6.00;2.50;;;9.40;90.30;;;;;;4906909;29;20075;-73
2021/03/14 10:19:49;;;;;;;5.38;2.92;;;9.50;90.20;;;;;;4913505;29;20060;-73
2021/03/14 10:22:43;;;;;;;6.18;2.22;;;9.50;89.30;;;;;;4894433;29;20059;-72
2021/03/14 10:25:30;;;;;;;11.70;3.13;;;9.60;89.70;;;;;;4897685;29;20047;-73
2021/03/14 10:28:15;;;;;;;4.30;2.38;;;9.40;87.60;;;;;;4913300;29;20052;-72
2021/03/14 10:31:04;;;;;;;6.95;2.60;;;9.30;87.40;;;;;;4884543;29;20061;-73
2021/03/14 10:33:37;;;;;;;;;;;9.30;88.30;;;;;;4897572;29;20147;-73
2021/03/14 10:36:13;;;;;;;5.15;2.08;;;9.20;88.30;;;;;;4884932;29;19979;-72
2021/03/14 10:38:52;;;;;;;7.30;2.53;;;9.20;88.50;;;;;;4901211;29;20063;-73
2021/03/14 10:41:40;;;;;;;9.20;1.80;;;9.00;86.70;;;;;;4896116;29;20116;-73
2021/03/14 10:44:09;;;;;;;3.42;1.25;;;8.70;86.20;;;;;;4881990;29;20048;-73
2021/03/14 10:46:54;;;;;;;2.95;0.82;;;8.40;86.80;;;;;;4897361;29;20044;-73
2021/03/14 10:49:28;;;;;;;2.30;0.60;;;8.20;87.80;;;;;;4896903;29;20044;-73
2021/03/14 10:52:00;;;;;;;1.58;0.50;;;8.00;88.00;;;;;;4881874;29;20048;-73
2021/03/14 10:54:37;;;;;;;2.90;0.70;;;7.80;88.80;;;;;;4878751;29;20108;-73
2021/03/14 10:57:15;;;;;;;2.65;0.70;;;7.80;89.20;;;;;;4871379;29;20131;-73
2021/03/14 11:00:07;;;;;;;4.22;1.15;;;7.70;89.70;;;;;;4893583;29;20100;-75
2021/03/14 11:02:43;;;;;;;2.97;1.13;;;7.70;89.90;;;;;;4880807;29;20055;-74
2021/03/14 11:05:21;;;;;;;4.70;1.45;;;7.90;90.00;;;;;;4882258;29;20388;-75
2021/03/14 11:07:59;;;;;;;3.47;1.05;;;8.10;89.80;;;;;;4882433;29;20480;-74
2021/03/14 11:10:35;;;;;;;4.60;1.52;;;8.20;90.00;;;;;;4886921;29;20048;-76
2021/03/14 11:13:16;;;;;;;3.35;1.27;;;8.30;90.00;;;;;;4870964;29;20055;-75
2021/03/14 11:16:06;;;;;;;7.38;1.73;;;8.30;89.90;;;;;;4888666;29;20510;-81
2021/03/14 11:18:39;;;;;;;4.88;1.80;;;8.40;89.50;;;;;;4896924;29;20148;-74
2021/03/14 11:21:13;;;;;;;4.68;1.60;;;8.50;89.80;;;;;;4882292;29;20464;-74
2021/03/14 11:23:43;;;;;;;3.47;1.30;;;8.70;89.70;;;;;;4891542;29;20143;-74
2021/03/14 11:26:33;;;;;;;5.45;1.50;;;8.90;89.00;;;;;;4883826;29;20147;-74
2021/03/14 11:29:00;;;;;;;2.65;0.90;;;9.10;87.80;;;;;;4895943;29;20104;-72
2021/03/14 11:31:39;;;;;;;6.55;2.05;;;9.30;88.40;;;;;;4862746;29;20045;-72
2021/03/14 11:34:11;;;;;;;2.85;0.80;;;9.40;88.30;;;;;;4880435;29;20049;-71
2021/03/14 11:36:52;;;;;;;2.92;0.77;;;9.50;87.30;;;;;;4882979;29;20051;-72
2021/03/14 11:39:28;;;;;;;2.92;0.73;;;9.60;86.60;;;;;;4886995;29;20049;-75
2021/03/14 11:42:04;;;;;;;4.38;1.10;;;9.70;86.40;;;;;;4872862;29;20053;-74
2021/03/14 11:44:55;;;;;;;1.48;0.60;;;9.80;86.30;;;;;;4903611;29;20049;-74
2021/03/14 11:47:23;;;;;;;3.08;0.80;;;9.90;86.60;;;;;;4895643;29;20136;-74
2021/03/14 11:50:16;;;;;;;4.35;1.08;;;10.00;86.80;;;;;;4875492;29;20048;-72
2021/03/14 11:52:46;;;;;;;4.20;0.82;;;10.00;86.00;;;;;;4867276;29;20054;-72
2021/03/14 11:55:16;;;;;;;;;;;9.90;85.90;;;;;;4875445;29;20052;-72
2021/03/14 11:57:43;;;;;;;3.38;0.75;;;9.90;85.50;;;;;;4890757;29;19974;-72
2021/03/14 12:00:15;;;;;;;3.88;0.73;;;9.80;85.60;;;;;;4895378;29;20041;-75
2021/03/14 12:02:41;;;;;;;2.35;0.70;;;9.90;85.50;;;;;;4897725;29;20068;-73
2021/03/14 12:05:27;;;;;;;2.88;0.95;;;10.00;85.50;;;;;;4884050;29;20124;-72
2021/03/14 12:07:53;;;;;;;4.25;0.77;;;10.20;85.10;;;;;;4878279;29;20052;-78
2021/03/14 12:10:22;;;;;;;4.82;1.40;;;10.30;84.40;;;;;;4895524;29;21573;-77
2021/03/14 12:12:49;;;;;;;3.35;1.02;;;10.40;84.00;;;;;;4872149;29;20513;-76
2021/03/14 12:15:21;;;;;;;1.88;0.70;;;10.40;83.40;;;;;;4896223;29;20044;-77
2021/03/14 12:17:51;;;;;;;3.08;0.80;;;10.40;83.20;;;;;;4896452;29;20052;-77
2021/03/14 12:20:19;;;;;;;2.83;0.90;;;10.40;82.50;;;;;;4897515;29;20049;-78
2021/03/14 12:23:06;;;;;;;2.78;0.65;;;10.40;82.20;;;;;;4878395;29;20510;-77
2021/03/14 12:25:38;;;;;;;5.47;1.27;;;10.40;81.90;;;;;;4894447;29;20120;-76
2021/03/14 12:28:08;;;;;;;3.08;0.90;;;10.30;82.00;;;;;;4889382;29;20049;-78
2021/03/14 12:30:35;;;;;;;5.55;1.05;;;10.20;81.80;;;;;;4880739;29;20092;-79
2021/03/14 12:33:05;;;;;;;5.20;0.95;;;10.10;81.00;;;;;;4881174;29;20060;-79
2021/03/14 12:35:33;;;;;;;2.40;0.70;;;10.00;81.40;;;;;;4895905;29;20052;-78
2021/03/14 12:38:06;;;;;;;4.95;0.90;;;10.00;81.30;;;;;;4896057;29;20135;-77
2021/03/14 12:40:33;;;;;;;4.28;0.90;;;10.00;81.40;;;;;;4896221;29;20053;-76
2021/03/14 12:43:00;;;;;;;4.30;1.13;;;10.00;80.60;;;;;;4881188;29;20464;-78
2021/03/14 12:45:35;;;;;;;4.38;0.98;;;10.00;81.00;;;;;;4882256;29;20048;-76
2021/03/14 12:48:02;;;;;;;6.25;0.95;;;10.00;80.60;;;;;;4897542;29;20492;-79
2021/03/14 12:50:34;;;;;;;5.07;0.90;;;10.00;80.10;;;;;;4881795;29;20406;-78
2021/03/14 12:53:01;;;;;;;3.00;0.70;;;10.00;80.70;;;;;;4896345;29;20357;-77
2021/03/14 12:55:28;;;;;;;7.13;0.98;;;10.00;80.90;;;;;;4896215;29;20049;-77
2021/03/14 12:57:55;;;;;;;6.13;0.98;;;10.00;80.40;;;;;;4896117;29;20140;-78
2021/03/14 13:00:30;;;;;;;3.40;0.75;;;10.10;79.60;;;;;;4884692;29;20040;-78
2021/03/14 13:02:57;;;;;;;1.85;0.70;;;10.10;79.70;;;;;;4895608;29;20080;-77
2021/03/14 13:05:25;;;;;;;2.75;0.75;;;10.10;79.50;;;;;;4897225;29;20059;-78
2021/03/14 13:07:54;;;;;;;6.10;0.70;;;9.90;78.50;;;;;;4895840;29;20059;-71
2021/03/14 13:10:21;;;;;;;1.38;0.77;;;9.80;79.60;;;;;;4896289;29;20040;-77
2021/03/14 13:12:49;;;;;;;3.70;0.90;;;9.80;79.50;;;;;;4895963;29;20127;-72
2021/03/14 13:15:19;;;;;;;3.92;0.80;;;9.80;80.20;;;;;;4893002;29;20111;-72
2021/03/14 13:17:46;;;;;;;6.25;1.67;;;9.90;79.50;;;;;;4889252;29;20481;-72
2021/03/14 13:20:17;;;;;;;4.93;1.38;;;10.10;79.00;;;;;;4894938;29;20037;-77
2021/03/14 13:22:59;;;;;;;5.13;1.10;;;10.30;78.50;;;;;;4897177;29;20040;-76